Matheson, CO (80830)

6:41 AM MDT on October 25, 2014 (GMT -0600)
Rural Elbert County | Change Station
CLOSE
Current Station
Personal Weather Station
Location: Matheson, CO
Elevation: 6033 ft
Nearby Weather Stations

Elev 6033 ft 39.06 °N, 103.94 °W | Updated 4 seconds ago

Clear
Clear
55.8 °F
Feels Like 55.8 °F
N
3.0
Wind Variable Wind from West
Gusts 6.0 mph

Today
High -- | Low -- °F
--% Chance of Precip.
Yesterday
High -- | Low -- °F
Precip. -- in
7:15 AM 6:03 PM
Waxing Crescent, 3% visible
Pressure 30.07 in
Visibility 10.0 miles
Clouds Clear
Dew Point 24 °F
Humidity 29%
Rainfall 0.00 in
Snow Depth Not available.
UV 0 out of 12
Pollen 3.00 out of 12
Air Quality Not available.
Flu Activity Sporadic
METAR KLIC 251155Z AUTO 34007KT 10SM CLR 09/M02 A3021 RMK AO2 SLP182 T00891022 10100 20028 55003

More Conditions Fewer Conditions

Pressure 30.07 in
Visibility 10.0 miles
Clouds Clear
Dew Point 24 °F
Humidity 29%
Rainfall 0.00 in
Snow Depth Not available.
UV 0 out of 12
Pollen 3.00 out of 12
Air Quality Not available.
Flu Activity Sporadic
METAR KLIC 251155Z AUTO 34007KT 10SM CLR 09/M02 A3021 RMK AO2 SLP182 T00891022 10100 20028 55003

More Conditions Fewer Conditions

10-Day Weather Forecast

Almanac

Astronomy

Oct. 25, 2014 Rise Set
Actual Time 7:15 AM MDT 6:03 PM MDT
Civil Twilight 6:48 AM MDT 6:30 PM MDT
Nautical Twilight 6:17 AM MDT 7:01 PM MDT
Astronomical Twilight 5:46 AM MDT 7:32 PM MDT
Moon 8:56 AM MDT 7:28 PM MDT
Length of Visible Light 11h 42m
Length of Day
10h 47m
Tomorrow will be 2m 20s shorter.
Waxing Crescent, 3% of the Moon is Illuminated
Today
Waxing Crescent
Oct 30
First Quarter
Nov 6
Full
Nov 14
Last Quarter
Nov 22
New

Today's Extremes

State Highs State Lows

Community

WunderPhotos

Upload Photos

1,764,821 photos uploaded!

Nearby

Air Quality

  Air Quality AQ Index Pollutant
Yesterday Good
OZONE
Yesterday Good
PM2.5
Saturday Good
PM2.5
Saturday Good
OZONE
Sunday Good
PM2.5
Sunday Good
OZONE
Monday Good
PM2.5
Monday Good
OZONE

Snow Depth

Station Depth Elevation
Glen Cove 1 in 11460 ft
Echo Lake 0 in 10600 ft
Lake Eldora 0 in 9700 ft
Jackwhacker Gulch 0 in 10960 ft
Niwot 0 in 9910 ft

Earthquake Activity

City Distance Mag. Time & Date
No recent earthquake activity has been reported nearby.
Minimum magnitude displayed is 2.5.

Coastal Water Temperatures

Place Temperature
No Stations Reporting

Nearby Weather Stations